Ning Jing Hai — VRQG5 — position and weather

sailwx.info

Track history (hours):
 
Tides and Currents Weather Stations Pressure Air Temp Water Temp Dewpoint Dewpoint Depression Visibility Wind Speed Wind Dir Waves Ship Positions

Ning Jing Hai

Last reported at 2017-Nov-07 18:30 UTC. Time now 2017-Dec-11 20:56 UTC.
Position S 24°16' W 046°22'.
Warning: this ship's position is 34 days out of date.

Length 199 m; draft 13.2 m.

Type: Cargo ship. MMSI: 477636800.

Date/timePositionNaut miles runAvg speedWind from/ knotsBaromVisibWave heightAir tempDewpointWater temp
2017-Nov-07 18:30S 24°16' W 046°22'0 0.3
2017-Nov-07 18:00S 24°16' W 046°22'5 5.0
2017-Nov-07 17:02S 24°12' W 046°23'0 6.6
2017-Nov-07 17:00S 24°11' W 046°23'5 9.5
2017-Nov-07 16:29S 24°06' W 046°23'5 9.4
2017-Nov-07 16:00S 24°02' W 046°21'4 7.0
2017-Nov-07 15:30S 23°60' W 046°19'1 0.0
2017-Nov-05 22:19S 23°59' W 046°18'3 8.3
2017-Nov-05 22:00S 24°00' W 046°20'4 8.7
2017-Nov-05 21:30S 24°04' W 046°22'1 2.1
2017-Nov-05 20:59S 24°05' W 046°21'0 0.0
2017-Nov-05 20:26S 24°05' W 046°21'0 0.0
2017-Nov-05 19:56S 24°05' W 046°21'0 0.0
2017-Nov-05 19:26S 24°05' W 046°21'0 0.0
2017-Nov-05 18:59S 24°05' W 046°21'0 0.0
2017-Nov-05 18:29S 24°05' W 046°21'0 0.0
2017-Nov-05 17:53S 24°05' W 046°21'0 0.0
2017-Nov-05 17:26S 24°05' W 046°21'0 0.0
2017-Nov-05 16:59S 24°05' W 046°21'0 0.0
2017-Nov-05 16:26S 24°05' W 046°21'0 0.0
2017-Nov-05 15:47S 24°05' W 046°21'0 0.0
2017-Nov-05 15:26S 24°05' W 046°21'0 0.0
2017-Nov-05 14:56S 24°05' W 046°21'0 0.0
2017-Nov-05 14:29S 24°05' W 046°21'0 0.0
2017-Nov-05 13:59S 24°05' W 046°21'0 0.0
2017-Nov-04 20:56S 24°05' W 046°21'0 0.0
2017-Nov-04 20:29S 24°05' W 046°21'0 0.0
2017-Nov-04 19:59S 24°05' W 046°21'0 0.0
2017-Nov-04 19:29S 24°05' W 046°21'0 0.0
2017-Nov-04 18:59S 24°05' W 046°21'0 0.0
2017-Nov-04 18:26S 24°05' W 046°21'0 0.0
2017-Nov-04 17:59S 24°05' W 046°21'0 0.0
2017-Nov-04 17:26S 24°05' W 046°21'0 0.0
2017-Nov-04 16:50S 24°05' W 046°21'0 0.0
2017-Nov-04 16:29S 24°05' W 046°21'0 0.0
2017-Nov-04 15:59S 24°05' W 046°21'0 0.0
2017-Nov-04 15:26S 24°05' W 046°21'0 0.0
2017-Nov-04 14:56S 24°05' W 046°21'0 0.0
2017-Nov-04 14:26S 24°05' W 046°21'0 0.0
2017-Nov-04 13:44S 24°05' W 046°21'0 0.0
2017-Nov-04 13:26S 24°05' W 046°21'0 0.0
2017-Nov-04 12:59S 24°05' W 046°21'0 0.0
2017-Nov-04 12:26S 24°05' W 046°21'0 0.0
2017-Nov-04 11:56S 24°05' W 046°21'0 0.0
2017-Nov-04 11:26S 24°05' W 046°21'0 0.0
2017-Nov-04 10:58S 24°05' W 046°21'0 0.0
2017-Nov-04 10:28S 24°05' W 046°21'0 0.0
2017-Nov-04 09:58S 24°05' W 046°21'0 0.0
2017-Nov-04 09:29S 24°05' W 046°21'0 0.0
2017-Nov-04 08:55S 24°05' W 046°21'0 0.0
2017-Nov-04 08:29S 24°05' W 046°21'0 0.0
2017-Nov-04 07:59S 24°05' W 046°21'0 0.0
2017-Nov-04 07:25S 24°05' W 046°21'0 0.0
2017-Nov-04 06:55S 24°05' W 046°21'0 0.0
2017-Nov-04 06:29S 24°05' W 046°21'0 0.0
2017-Nov-04 05:56S 24°05' W 046°21'0 0.0
2017-Nov-04 05:29S 24°05' W 046°21'0 0.0
2017-Nov-04 04:59S 24°05' W 046°21'0 0.0
2017-Nov-04 04:26S 24°05' W 046°21'0 0.0
2017-Nov-04 03:58S 24°05' W 046°21'0 0.0
2017-Nov-04 03:28S 24°05' W 046°21'0 0.0
2017-Nov-04 02:55S 24°05' W 046°21'0 0.0
2017-Nov-04 02:28S 24°05' W 046°21'0 0.0
2017-Nov-04 01:55S 24°05' W 046°21'0 0.0
2017-Nov-03 23:28S 24°05' W 046°21'0 0.0
2017-Nov-03 22:55S 24°05' W 046°21'0 0.0
2017-Nov-03 22:28S 24°05' W 046°21'0 0.0
2017-Nov-03 21:58S 24°05' W 046°21'0 0.0
2017-Nov-03 21:28S 24°05' W 046°21'0 0.0
2017-Nov-03 20:55S 24°05' W 046°21'0 0.0
2017-Nov-03 20:25S 24°05' W 046°21'0 0.0
2017-Nov-03 19:58S 24°05' W 046°21'0 0.0
2017-Nov-03 11:04S 24°05' W 046°21'0 0.1
2017-Nov-03 09:58S 24°05' W 046°21'0 0.1
2017-Nov-03 09:28S 24°05' W 046°21'0 0.0
2017-Nov-03 08:58S 24°05' W 046°21'0 0.1
2017-Nov-03 08:28S 24°05' W 046°21'0 0.0
2017-Nov-03 07:55S 24°05' W 046°21'0 0.0
2017-Nov-03 07:25S 24°05' W 046°21'0 0.0
2017-Nov-03 06:58S 24°05' W 046°21'0 0.0
2017-Nov-03 06:28S 24°05' W 046°21'0 0.0
2017-Nov-03 05:55S 24°05' W 046°21'0 0.0
2017-Nov-03 05:25S 24°05' W 046°21'0 0.0
2017-Nov-03 04:58S 24°05' W 046°21'0 0.1
2017-Nov-03 04:25S 24°05' W 046°21'0 0.0
2017-Nov-03 03:58S 24°05' W 046°21'0 0.0
2017-Nov-03 03:25S 24°05' W 046°21'0 0.1
2017-Nov-03 02:58S 24°05' W 046°21'0 0.0
2017-Nov-03 02:25S 24°05' W 046°21'0 0.0
2017-Nov-03 01:55S 24°05' W 046°21'0 0.0
2017-Nov-03 01:25S 24°05' W 046°21'0 0.0
2017-Nov-03 00:55S 24°05' W 046°21'0 0.0
2017-Nov-03 00:19S 24°05' W 046°21'0 0.0
2017-Nov-02 23:58S 24°05' W 046°21'0 0.0
2017-Nov-02 06:19S 24°05' W 046°21'0 0.0
2017-Nov-02 04:43S 24°05' W 046°21'0 0.0
2017-Nov-02 04:22S 24°05' W 046°21'0 0.0
2017-Nov-02 03:55S 24°05' W 046°21'0 0.0
2017-Nov-02 03:25S 24°05' W 046°21'0 0.0
2017-Nov-02 02:37S 24°05' W 046°21'0 0.1
2017-Nov-02 02:28S 24°05' W 046°21'0 0.0
2017-Nov-02 01:58S 24°05' W 046°21'0 0.0
2017-Nov-02 01:25S 24°05' W 046°21'0 0.0
2017-Nov-02 00:58S 24°05' W 046°21'0 0.0
2017-Nov-01 18:22S 24°05' W 046°21'6 0.1
2017-Oct-30 21:31S 23°59' W 046°18'0 7.3
2017-Oct-30 21:30S 23°59' W 046°18'5 7.7
2017-Oct-30 20:54S 24°02' W 046°21'3 6.3
2017-Oct-30 20:30S 24°05' W 046°22'1 2.8
2017-Oct-30 19:59S 24°05' W 046°21'0 0.1
2017-Oct-30 19:29S 24°05' W 046°21'0 0.1
2017-Oct-30 18:59S 24°05' W 046°21'0 0.0
2017-Oct-30 18:29S 24°05' W 046°21'0 0.0
2017-Oct-30 17:59S 24°05' W 046°21'0 0.0
2017-Oct-30 17:29S 24°05' W 046°21'0 0.0
2017-Oct-30 17:00S 24°05' W 046°21'0 0.0
2017-Oct-30 16:30S 24°05' W 046°21'0 0.1
2017-Oct-30 15:57S 24°05' W 046°21'0 0.1
2017-Oct-30 15:27S 24°05' W 046°21'0 0.0
2017-Oct-30 14:42S 24°05' W 046°21'0 0.2
2017-Oct-30 14:24S 24°05' W 046°21'0 0.0
2017-Oct-30 13:27S 24°05' W 046°21'0 0.0
2017-Oct-30 13:00S 24°05' W 046°21'0 0.1
2017-Oct-30 12:30S 24°05' W 046°21'0 0.0
2017-Oct-30 12:00S 24°05' W 046°21'0 0.1
2017-Oct-30 11:30S 24°05' W 046°21'0 0.1
2017-Oct-30 11:00S 24°05' W 046°21'0 0.0
2017-Oct-30 10:30S 24°05' W 046°21'0 0.0
2017-Oct-30 09:54S 24°05' W 046°21'0 0.1
2017-Oct-30 09:30S 24°05' W 046°21'0 0.1
2017-Oct-30 09:00S 24°05' W 046°21'0 0.2
2017-Oct-30 08:21S 24°05' W 046°21'0 0.0
2017-Oct-30 07:54S 24°05' W 046°21'0 0.0
2017-Oct-30 07:30S 24°05' W 046°21'0 0.1
2017-Oct-30 07:00S 24°05' W 046°21'0 0.0
2017-Oct-30 06:30S 24°05' W 046°21'0 0.0
2017-Oct-30 06:00S 24°05' W 046°21'0 0.0
2017-Oct-30 05:30S 24°05' W 046°21'0 0.1
2017-Oct-30 04:57S 24°05' W 046°21'0 0.1
2017-Oct-30 04:30S 24°05' W 046°21'0 0.2
2017-Oct-30 03:42S 24°05' W 046°21'0 0.1
2017-Oct-30 03:30S 24°05' W 046°21'0 0.0
2017-Oct-30 03:00S 24°05' W 046°21'1 2.1
2017-Oct-30 02:30S 24°05' W 046°22'3 5.1
2017-Oct-30 02:00S 24°08' W 046°23'3 5.3
2017-Oct-30 01:30S 24°10' W 046°24'612.0
2017-Oct-30 01:00S 24°16' W 046°25'714.3
2017-Oct-30 00:30S 24°23' W 046°27'713.7
2017-Oct-30 00:00S 24°29' W 046°29'813.8
2017-Oct-29 23:28S 24°35' W 046°35'814.0
2017-Oct-29 22:52S 24°40' W 046°42'  
Track history (hours):
 
Tides and Currents Weather Stations Pressure Air Temp Water Temp Dewpoint Dewpoint Depression Visibility Wind Speed Wind Dir Waves Ship Positions

Ning Jing Hai

Last reported at 2017-Nov-07 18:30 UTC. Time now 2017-Dec-11 20:56 UTC.
Position S 24°16' W 046°22'.
Warning: this ship's position is 34 days out of date.

Length 199 m; draft 13.2 m.

Type: Cargo ship. MMSI: 477636800.

Date/timePositionNaut miles runAvg speedWind from/ knotsBaromVisibWave heightAir tempDewpointWater temp
2017-Nov-07 18:30S 24°16' W 046°22'0 0.3
2017-Nov-07 18:00S 24°16' W 046°22'5 5.0
2017-Nov-07 17:02S 24°12' W 046°23'0 6.6
2017-Nov-07 17:00S 24°11' W 046°23'5 9.5
2017-Nov-07 16:29S 24°06' W 046°23'5 9.4
2017-Nov-07 16:00S 24°02' W 046°21'4 7.0
2017-Nov-07 15:30S 23°60' W 046°19'1 0.0
2017-Nov-05 22:19S 23°59' W 046°18'3 8.3
2017-Nov-05 22:00S 24°00' W 046°20'4 8.7
2017-Nov-05 21:30S 24°04' W 046°22'1 2.1
2017-Nov-05 20:59S 24°05' W 046°21'0 0.0
2017-Nov-05 20:26S 24°05' W 046°21'0 0.0
2017-Nov-05 19:56S 24°05' W 046°21'0 0.0
2017-Nov-05 19:26S 24°05' W 046°21'0 0.0
2017-Nov-05 18:59S 24°05' W 046°21'0 0.0
2017-Nov-05 18:29S 24°05' W 046°21'0 0.0
2017-Nov-05 17:53S 24°05' W 046°21'0 0.0
2017-Nov-05 17:26S 24°05' W 046°21'0 0.0
2017-Nov-05 16:59S 24°05' W 046°21'0 0.0
2017-Nov-05 16:26S 24°05' W 046°21'0 0.0
2017-Nov-05 15:47S 24°05' W 046°21'0 0.0
2017-Nov-05 15:26S 24°05' W 046°21'0 0.0
2017-Nov-05 14:56S 24°05' W 046°21'0 0.0
2017-Nov-05 14:29S 24°05' W 046°21'0 0.0
2017-Nov-05 13:59S 24°05' W 046°21'0 0.0
2017-Nov-04 20:56S 24°05' W 046°21'0 0.0
2017-Nov-04 20:29S 24°05' W 046°21'0 0.0
2017-Nov-04 19:59S 24°05' W 046°21'0 0.0
2017-Nov-04 19:29S 24°05' W 046°21'0 0.0
2017-Nov-04 18:59S 24°05' W 046°21'0 0.0
2017-Nov-04 18:26S 24°05' W 046°21'0 0.0
2017-Nov-04 17:59S 24°05' W 046°21'0 0.0
2017-Nov-04 17:26S 24°05' W 046°21'0 0.0
2017-Nov-04 16:50S 24°05' W 046°21'0 0.0
2017-Nov-04 16:29S 24°05' W 046°21'0 0.0
2017-Nov-04 15:59S 24°05' W 046°21'0 0.0
2017-Nov-04 15:26S 24°05' W 046°21'0 0.0
2017-Nov-04 14:56S 24°05' W 046°21'0 0.0
2017-Nov-04 14:26S 24°05' W 046°21'0 0.0
2017-Nov-04 13:44S 24°05' W 046°21'0 0.0
2017-Nov-04 13:26S 24°05' W 046°21'0 0.0
2017-Nov-04 12:59S 24°05' W 046°21'0 0.0
2017-Nov-04 12:26S 24°05' W 046°21'0 0.0
2017-Nov-04 11:56S 24°05' W 046°21'0 0.0
2017-Nov-04 11:26S 24°05' W 046°21'0 0.0
2017-Nov-04 10:58S 24°05' W 046°21'0 0.0
2017-Nov-04 10:28S 24°05' W 046°21'0 0.0
2017-Nov-04 09:58S 24°05' W 046°21'0 0.0
2017-Nov-04 09:29S 24°05' W 046°21'0 0.0
2017-Nov-04 08:55S 24°05' W 046°21'0 0.0
2017-Nov-04 08:29S 24°05' W 046°21'0 0.0
2017-Nov-04 07:59S 24°05' W 046°21'0 0.0
2017-Nov-04 07:25S 24°05' W 046°21'0 0.0
2017-Nov-04 06:55S 24°05' W 046°21'0 0.0
2017-Nov-04 06:29S 24°05' W 046°21'0 0.0
2017-Nov-04 05:56S 24°05' W 046°21'0 0.0
2017-Nov-04 05:29S 24°05' W 046°21'0 0.0
2017-Nov-04 04:59S 24°05' W 046°21'0 0.0
2017-Nov-04 04:26S 24°05' W 046°21'0 0.0
2017-Nov-04 03:58S 24°05' W 046°21'0 0.0
2017-Nov-04 03:28S 24°05' W 046°21'0 0.0
2017-Nov-04 02:55S 24°05' W 046°21'0 0.0
2017-Nov-04 02:28S 24°05' W 046°21'0 0.0
2017-Nov-04 01:55S 24°05' W 046°21'0 0.0
2017-Nov-03 23:28S 24°05' W 046°21'0 0.0
2017-Nov-03 22:55S 24°05' W 046°21'0 0.0
2017-Nov-03 22:28S 24°05' W 046°21'0 0.0
2017-Nov-03 21:58S 24°05' W 046°21'0 0.0
2017-Nov-03 21:28S 24°05' W 046°21'0 0.0
2017-Nov-03 20:55S 24°05' W 046°21'0 0.0
2017-Nov-03 20:25S 24°05' W 046°21'0 0.0
2017-Nov-03 19:58S 24°05' W 046°21'0 0.0
2017-Nov-03 11:04S 24°05' W 046°21'0 0.1
2017-Nov-03 09:58S 24°05' W 046°21'0 0.1
2017-Nov-03 09:28S 24°05' W 046°21'0 0.0
2017-Nov-03 08:58S 24°05' W 046°21'0 0.1
2017-Nov-03 08:28S 24°05' W 046°21'0 0.0
2017-Nov-03 07:55S 24°05' W 046°21'0 0.0
2017-Nov-03 07:25S 24°05' W 046°21'0 0.0
2017-Nov-03 06:58S 24°05' W 046°21'0 0.0
2017-Nov-03 06:28S 24°05' W 046°21'0 0.0
2017-Nov-03 05:55S 24°05' W 046°21'0 0.0
2017-Nov-03 05:25S 24°05' W 046°21'0 0.0
2017-Nov-03 04:58S 24°05' W 046°21'0 0.1
2017-Nov-03 04:25S 24°05' W 046°21'0 0.0
2017-Nov-03 03:58S 24°05' W 046°21'0 0.0
2017-Nov-03 03:25S 24°05' W 046°21'0 0.1
2017-Nov-03 02:58S 24°05' W 046°21'0 0.0
2017-Nov-03 02:25S 24°05' W 046°21'0 0.0
2017-Nov-03 01:55S 24°05' W 046°21'0 0.0
2017-Nov-03 01:25S 24°05' W 046°21'0 0.0
2017-Nov-03 00:55S 24°05' W 046°21'0 0.0
2017-Nov-03 00:19S 24°05' W 046°21'0 0.0
2017-Nov-02 23:58S 24°05' W 046°21'0 0.0
2017-Nov-02 06:19S 24°05' W 046°21'0 0.0
2017-Nov-02 04:43S 24°05' W 046°21'0 0.0
2017-Nov-02 04:22S 24°05' W 046°21'0 0.0
2017-Nov-02 03:55S 24°05' W 046°21'0 0.0
2017-Nov-02 03:25S 24°05' W 046°21'0 0.0
2017-Nov-02 02:37S 24°05' W 046°21'0 0.1
2017-Nov-02 02:28S 24°05' W 046°21'0 0.0
2017-Nov-02 01:58S 24°05' W 046°21'0 0.0
2017-Nov-02 01:25S 24°05' W 046°21'0 0.0
2017-Nov-02 00:58S 24°05' W 046°21'0 0.0
2017-Nov-01 18:22S 24°05' W 046°21'6 0.1
2017-Oct-30 21:31S 23°59' W 046°18'0 7.3
2017-Oct-30 21:30S 23°59' W 046°18'5 7.7
2017-Oct-30 20:54S 24°02' W 046°21'3 6.3
2017-Oct-30 20:30S 24°05' W 046°22'1 2.8
2017-Oct-30 19:59S 24°05' W 046°21'0 0.1
2017-Oct-30 19:29S 24°05' W 046°21'0 0.1
2017-Oct-30 18:59S 24°05' W 046°21'0 0.0
2017-Oct-30 18:29S 24°05' W 046°21'0 0.0
2017-Oct-30 17:59S 24°05' W 046°21'0 0.0
2017-Oct-30 17:29S 24°05' W 046°21'0 0.0
2017-Oct-30 17:00S 24°05' W 046°21'0 0.0
2017-Oct-30 16:30S 24°05' W 046°21'0 0.1
2017-Oct-30 15:57S 24°05' W 046°21'0 0.1
2017-Oct-30 15:27S 24°05' W 046°21'0 0.0
2017-Oct-30 14:42S 24°05' W 046°21'0 0.2
2017-Oct-30 14:24S 24°05' W 046°21'0 0.0
2017-Oct-30 13:27S 24°05' W 046°21'0 0.0
2017-Oct-30 13:00S 24°05' W 046°21'0 0.1
2017-Oct-30 12:30S 24°05' W 046°21'0 0.0
2017-Oct-30 12:00S 24°05' W 046°21'0 0.1
2017-Oct-30 11:30S 24°05' W 046°21'0 0.1
2017-Oct-30 11:00S 24°05' W 046°21'0 0.0
2017-Oct-30 10:30S 24°05' W 046°21'0 0.0
2017-Oct-30 09:54S 24°05' W 046°21'0 0.1
2017-Oct-30 09:30S 24°05' W 046°21'0 0.1
2017-Oct-30 09:00S 24°05' W 046°21'0 0.2
2017-Oct-30 08:21S 24°05' W 046°21'0 0.0
2017-Oct-30 07:54S 24°05' W 046°21'0 0.0
2017-Oct-30 07:30S 24°05' W 046°21'0 0.1
2017-Oct-30 07:00S 24°05' W 046°21'0 0.0
2017-Oct-30 06:30S 24°05' W 046°21'0 0.0
2017-Oct-30 06:00S 24°05' W 046°21'0 0.0
2017-Oct-30 05:30S 24°05' W 046°21'0 0.1
2017-Oct-30 04:57S 24°05' W 046°21'0 0.1
2017-Oct-30 04:30S 24°05' W 046°21'0 0.2
2017-Oct-30 03:42S 24°05' W 046°21'0 0.1
2017-Oct-30 03:30S 24°05' W 046°21'0 0.0
2017-Oct-30 03:00S 24°05' W 046°21'1 2.1
2017-Oct-30 02:30S 24°05' W 046°22'3 5.1
2017-Oct-30 02:00S 24°08' W 046°23'3 5.3
2017-Oct-30 01:30S 24°10' W 046°24'612.0
2017-Oct-30 01:00S 24°16' W 046°25'714.3
2017-Oct-30 00:30S 24°23' W 046°27'713.7
2017-Oct-30 00:00S 24°29' W 046°29'813.8
2017-Oct-29 23:28S 24°35' W 046°35'814.0
2017-Oct-29 22:52S 24°40' W 046°42'  

Dump ship's entire track history